Time;durP1;ratioP1;P1;durP2;ratioP2;P2;SDS_P1;SDS_P2;PMS_P1;PMS_P2;Temp;Humidity;BMP_temperature;BMP_pressure;BME280_temperature;BME280_humidity;BME280_pressure;Samples;Min_cycle;Max_cycle;Signal;HPM_P1;HPM_P2
2021/03/16 00:00:07;;;;;;;;;;;;;;;3.69;69.67;95354.28;1769833;80;20228;-52
2021/03/16 00:02:52;;;;;;;;;;;;;;;3.68;69.66;95355.66;1766494;80;21205;-52
2021/03/16 00:05:22;;;;;;;;;;;;;;;3.68;69.70;95347.96;1765494;80;20263;-53
2021/03/16 00:07:49;;;;;;;;;;;;;;;3.67;69.70;95347.16;1766491;80;20233;-53
2021/03/16 00:10:17;;;;;;;;;;;;;;;3.63;69.69;95345.68;1770017;80;20222;-52
2021/03/16 00:12:44;;;;;;;;;;;;;;;3.62;69.80;95344.05;1770697;80;20206;-53
2021/03/16 00:15:13;;;;;;;;;;;;;;;3.61;69.73;95344.96;1774936;80;21496;-53
2021/03/16 00:17:41;;;;;;;;;;;;;;;3.57;69.88;95348.66;1771372;80;20222;-54
2021/03/16 00:20:12;;;;;;;;;;;;;;;3.58;69.89;95350.75;1773193;80;20210;-51
2021/03/16 00:22:39;;;;;;;;;;;;;;;3.59;69.97;95353.22;1776959;80;20799;-51
2021/03/16 00:25:10;;;;;;;;;;;;;;;3.64;70.00;95343.96;1771402;80;20214;-52
2021/03/16 00:27:37;;;;;;;;;;;;;;;3.63;70.06;95346.16;1771751;80;21308;-52
2021/03/16 00:30:06;;;;;;;;;;;;;;;;;;1771042;80;20226;-52
2021/03/16 00:32:33;;;;;;;;;;;;;;;3.62;69.96;95342.77;1776766;80;20273;-52
2021/03/16 00:35:01;;;;;;;;;;;;;;;3.61;69.98;95346.24;1737719;81;20541;-53
2021/03/16 00:37:28;;;;;;;;;;;;;;;3.60;69.94;95347.19;1737423;82;20422;-52
2021/03/16 00:39:55;;;;;;;;;;;;;;;3.55;69.95;95345.34;1743450;81;21215;-52
2021/03/16 00:42:23;;;;;;;;;;;;;;;3.49;70.08;95343.99;1726506;82;20270;-52
2021/03/16 00:44:50;;;;;;;;;;;;;;;3.50;70.26;95344.81;1725146;82;20294;-52
2021/03/16 00:47:18;;;;;;;;;;;;;;;3.50;70.42;95339.23;1775152;80;20242;-52
2021/03/16 00:49:46;;;;;;;;;;;;;;;3.54;70.48;95346.28;1771752;81;20217;-51
2021/03/16 00:52:14;;;;;;;;;;;;;;;3.58;70.36;95342.59;1771903;81;22132;-53
2021/03/16 00:54:41;;;;;;;;;;;;;;;3.59;70.30;95344.71;1783194;80;20233;-53
2021/03/16 00:57:09;;;;;;;;;;;;;;;3.60;70.29;95334.36;1771764;80;20222;-52
2021/03/16 00:59:36;;;;;;;;;;;;;;;3.61;70.12;95326.20;1782176;80;20233;-52
2021/03/16 01:02:03;;;;;;;;;;;;;;;3.58;70.08;95328.95;1778508;80;20206;-52
2021/03/16 01:04:31;;;;;;;;;;;;;;;3.54;70.15;95319.81;1789960;80;21203;-52
2021/03/16 01:06:58;;;;;;;;;;;;;;;3.51;70.19;95325.95;1783036;80;21003;-51
2021/03/16 01:09:25;;;;;;;;;;;;;;;3.46;70.38;95316.44;1790389;80;20226;-50
2021/03/16 01:11:52;;;;;;;;;;;;;;;3.44;70.56;95316.53;1778814;80;20273;-51
2021/03/16 01:14:20;;;;;;;;;;;;;;;3.39;70.64;95314.72;1769646;80;20242;-51
2021/03/16 01:16:47;;;;;;;;;;;;;;;3.38;70.70;95312.25;1771431;81;21224;-51
2021/03/16 01:19:14;;;;;;;;;;;;;;;3.39;70.66;95313.44;1783454;80;20514;-52
2021/03/16 01:21:41;;;;;;;;;;;;;;;3.41;70.60;95316.72;1778689;80;20228;-52
2021/03/16 01:24:09;;;;;;;;;;;;;;;3.41;70.54;95318.47;1770826;81;22281;-52
2021/03/16 01:26:37;;;;;;;;;;;;;;;3.42;70.60;95316.25;1772384;80;20214;-52
2021/03/16 01:29:04;;;;;;;;;;;;;;;3.45;70.52;95316.91;1773041;80;23361;-51
2021/03/16 01:31:32;;;;;;;;;;;;;;;3.43;70.49;95305.91;1769466;81;20231;-52
2021/03/16 01:33:59;;;;;;;;;;;;;;;3.43;70.46;95299.49;1786284;80;20505;-51
2021/03/16 01:36:27;;;;;;;;;;;;;;;3.40;70.54;95300.97;1786827;80;22155;-53
2021/03/16 01:38:54;;;;;;;;;;;;;;;3.38;70.72;95302.81;1770904;80;21570;-52
2021/03/16 01:41:21;;;;;;;;;;;;;;;3.37;70.74;95306.31;1773740;80;21369;-51
2021/03/16 01:43:49;;;;;;;;;;;;;;;3.37;70.77;95308.88;1771623;80;20269;-52
2021/03/16 01:46:18;;;;;;;;;;;;;;;3.36;70.77;95310.25;1773353;80;20222;-51
2021/03/16 01:48:46;;;;;;;;;;;;;;;3.33;70.78;95307.41;1787749;80;20634;-51
2021/03/16 01:51:13;;;;;;;;;;;;;;;3.30;70.85;95305.84;1785016;80;20256;-52
2021/03/16 01:53:41;;;;;;;;;;;;;;;3.28;70.94;95298.71;1771449;81;21392;-51
2021/03/16 01:56:11;;;;;;;;;;;;;;;3.30;70.99;95304.56;1769000;79;20226;-51
2021/03/16 01:59:00;;;;;;;;;;;;;;;3.31;71.08;95298.52;1773692;80;20218;-53
2021/03/16 02:01:46;;;;;;;;;;;;;;;3.31;71.08;95297.71;1775702;80;20233;-53
2021/03/16 02:04:33;;;;;;;;;;;;;;;3.31;71.01;95301.09;1757245;81;37476;-52
2021/03/16 02:07:22;;;;;;;;;;;;;;;3.31;70.83;95298.52;1771499;80;21162;-52
2021/03/16 02:10:14;;;;;;;;;;;;;;;3.29;70.84;95299.55;1771727;80;20532;-53
2021/03/16 02:13:05;;;;;;;;;;;;;;;3.27;70.95;95303.93;1771548;80;20243;-53
2021/03/16 02:15:57;;;;;;;;;;;;;;;3.28;71.04;95302.55;1766377;80;20489;-52
2021/03/16 02:18:49;;;;;;;;;;;;;;;3.29;71.05;95301.65;1782827;80;20313;-52
2021/03/16 02:21:34;;;;;;;;;;;;;;;3.23;71.05;95299.46;1774518;80;21207;-52
2021/03/16 02:24:48;;;;;;;;;;;;;;;3.18;71.08;95298.11;1771691;81;20234;-52
2021/03/16 02:27:57;;;;;;;;;;;;;;;3.13;71.23;95302.23;1795701;79;20229;-52
2021/03/16 02:30:43;;;;;;;;;;;;;;;3.10;71.34;95304.52;1796838;79;20407;-52
2021/03/16 02:33:30;;;;;;;;;;;;;;;3.10;71.30;95319.89;1804940;79;20287;-52
2021/03/16 02:36:16;;;;;;;;;;;;;;;3.11;71.46;95316.42;1807298;78;21392;-53
2021/03/16 02:39:04;;;;;;;;;;;;;;;3.14;71.50;95310.27;1787657;80;20705;-52
2021/03/16 02:41:51;;;;;;;;;;;;;;;3.16;71.50;95305.89;1790111;79;20234;-52
2021/03/16 02:44:37;;;;;;;;;;;;;;;3.16;71.42;95309.74;1812001;79;20208;-52
2021/03/16 02:47:23;;;;;;;;;;;;;;;3.17;71.48;95307.52;1798492;79;20492;-53
2021/03/16 02:50:11;;;;;;;;;;;;;;;3.18;71.41;95308.37;1788299;80;21210;-53
2021/03/16 02:52:58;;;;;;;;;;;;;;;3.15;71.39;95313.20;1810285;79;20275;-52
2021/03/16 02:55:44;;;;;;;;;;;;;;;3.13;71.51;95313.77;1799511;78;20215;-53
2021/03/16 02:58:30;;;;;;;;;;;;;;;3.12;71.67;95310.39;1781139;80;21245;-52
2021/03/16 03:01:17;;;;;;;;;;;;;;;3.13;71.65;95319.70;1774725;80;20211;-52
2021/03/16 03:04:07;;;;;;;;;;;;;;;3.16;71.49;95310.17;1756979;81;21394;-52
2021/03/16 03:06:53;;;;;;;;;;;;;;;3.18;71.44;95316.87;1778682;80;20599;-52
2021/03/16 03:09:39;;;;;;;;;;;;;;;3.20;71.44;95318.06;1781747;80;20581;-51
2021/03/16 03:12:24;;;;;;;;;;;;;;;3.12;71.40;95314.23;1782749;80;20502;-51
2021/03/16 03:15:10;;;;;;;;;;;;;;;3.12;71.70;95317.23;1756249;80;20226;-54
2021/03/16 03:17:57;;;;;;;;;;;;;;;3.16;71.76;95312.30;1756667;81;21157;-52
2021/03/16 03:20:43;;;;;;;;;;;;;;;3.18;71.63;95316.05;1777699;80;20494;-51
2021/03/16 03:23:32;;;;;;;;;;;;;;;3.17;71.60;95315.68;1756492;81;20238;-51
2021/03/16 03:26:21;;;;;;;;;;;;;;;3.17;71.55;95316.96;1773851;79;20222;-53
2021/03/16 03:29:09;;;;;;;;;;;;;;;3.20;71.52;95314.21;1782445;79;20285;-53
2021/03/16 03:31:55;;;;;;;;;;;;;;;3.21;71.45;95317.97;1753466;80;21342;-53
2021/03/16 03:34:43;;;;;;;;;;;;;;;3.19;71.41;95314.68;1782208;79;20218;-53
2021/03/16 03:37:29;;;;;;;;;;;;;;;3.16;71.49;95311.02;1755247;80;20218;-52
2021/03/16 03:40:15;;;;;;;;;;;;;;;3.17;71.61;95310.08;1779885;79;20211;-52
2021/03/16 03:43:02;;;;;;;;;;;;;;;3.21;71.67;95321.81;1753286;80;21587;-53
2021/03/16 03:45:51;;;;;;;;;;;;;;;3.23;71.72;95321.72;1780228;80;23679;-53
2021/03/16 03:48:37;;;;;;;;;;;;;;;3.26;71.54;95321.53;1756146;80;20213;-52
2021/03/16 03:51:23;;;;;;;;;;;;;;;3.24;71.45;95326.75;1782954;79;20281;-54
2021/03/16 03:54:10;;;;;;;;;;;;;;;3.24;71.45;95331.03;1756608;81;20246;-53
2021/03/16 03:56:56;;;;;;;;;;;;;;;3.28;71.54;95324.34;1777395;80;20216;-51
2021/03/16 03:59:43;;;;;;;;;;;;;;;3.36;71.33;95321.32;1755508;81;21318;-52
2021/03/16 04:02:28;;;;;;;;;;;;;;;3.38;71.23;95326.36;1780207;79;20517;-52
2021/03/16 04:05:15;;;;;;;;;;;;;;;3.35;71.30;95324.79;1725047;80;20239;-54
2021/03/16 04:08:03;;;;;;;;;;;;;;;3.35;71.28;95322.23;1780347;80;20270;-52
2021/03/16 04:10:49;;;;;;;;;;;;;;;3.35;71.20;95314.53;1756906;80;20243;-53
2021/03/16 04:13:34;;;;;;;;;;;;;;;3.34;71.18;95319.75;1782921;79;21465;-54
2021/03/16 04:16:20;;;;;;;;;;;;;;;3.34;71.13;95319.31;1755592;80;20239;-53
2021/03/16 04:19:07;;;;;;;;;;;;;;;3.32;71.08;95319.84;1782585;80;20293;-52
2021/03/16 04:21:53;;;;;;;;;;;;;;;3.27;71.16;95327.84;1781954;79;21437;-52
2021/03/16 04:24:38;;;;;;;;;;;;;;;3.28;71.33;95326.91;1744823;81;20298;-53
2021/03/16 04:27:24;;;;;;;;;;;;;;;3.30;71.40;95328.10;1773490;79;21373;-53
2021/03/16 04:30:13;;;;;;;;;;;;;;;3.29;71.41;95323.91;1771076;80;20214;-53
2021/03/16 04:32:58;;;;;;;;;;;;;;;3.30;71.45;95326.82;1767905;80;20569;-53
2021/03/16 04:35:44;;;;;;;;;;;;;;;3.32;71.37;95322.41;1767910;80;20214;-52
2021/03/16 04:38:30;;;;;;;;;;;;;;;3.33;71.21;95318.94;1768503;80;20677;-52
2021/03/16 04:41:16;;;;;;;;;;;;;;;3.32;71.23;95324.98;1769346;80;21354;-53
2021/03/16 04:44:02;;;;;;;;;;;;;;;3.32;71.18;95324.98;1767983;80;20234;-53
2021/03/16 04:46:48;;;;;;;;;;;;;;;3.32;71.16;95326.26;1768019;80;20258;-53
2021/03/16 04:49:35;;;;;;;;;;;;;;;3.34;71.13;95323.60;1769421;80;20281;-52
2021/03/16 04:52:21;;;;;;;;;;;;;;;3.38;71.08;95319.95;1765864;80;20226;-52
2021/03/16 04:55:08;;;;;;;;;;;;;;;3.43;71.02;95329.45;1758937;80;20490;-53
2021/03/16 04:57:54;;;;;;;;;;;;;;;3.41;71.00;95323.60;1768407;80;20751;-52
2021/03/16 05:00:42;;;;;;;;;;;;;;;3.40;71.09;95318.91;1759636;80;20214;-52
2021/03/16 05:03:28;;;;;;;;;;;;;;;3.44;70.95;95327.27;1765118;81;20278;-53
2021/03/16 05:06:14;;;;;;;;;;;;;;;3.46;70.91;95328.80;1762242;80;20490;-52
2021/03/16 05:09:01;;;;;;;;;;;;;;;3.45;70.75;95330.17;1766717;80;20739;-52
2021/03/16 05:11:47;;;;;;;;;;;;;;;3.40;70.73;95335.58;1759109;80;20220;-53
2021/03/16 05:14:33;;;;;;;;;;;;;;;3.40;70.83;95343.73;1768842;80;20234;-53
2021/03/16 05:17:21;;;;;;;;;;;;;;;3.45;70.87;95343.84;1758406;80;21297;-54
2021/03/16 05:20:09;;;;;;;;;;;;;;;3.44;70.92;95346.03;1772721;80;20301;-54
2021/03/16 05:22:55;;;;;;;;;;;;;;;3.44;70.86;95347.31;1766910;80;21000;-55
2021/03/16 05:25:41;;;;;;;;;;;;;;;3.46;71.06;95347.22;1768868;80;20313;-51
2021/03/16 05:28:26;;;;;;;;;;;;;;;3.52;70.95;95354.97;1770649;80;20218;-52
2021/03/16 05:31:12;;;;;;;;;;;;;;;3.54;70.76;95351.41;1772121;80;20841;-53
2021/03/16 05:33:58;;;;;;;;;;;;;;;3.55;70.52;95349.19;1766688;80;20586;-52
2021/03/16 05:36:43;;;;;;;;;;;;;;;3.53;70.47;95348.47;1764655;80;21215;-52
2021/03/16 05:39:29;;;;;;;;;;;;;;;3.52;70.48;95354.53;1768150;80;20274;-52
2021/03/16 05:42:17;;;;;;;;;;;;;;;3.53;70.60;95357.44;1765944;80;20294;-53
2021/03/16 05:45:05;;;;;;;;;;;;;;;3.56;70.60;95355.97;1766968;80;21397;-53
2021/03/16 05:47:51;;;;;;;;;;;;;;;3.55;70.52;95359.91;1760186;80;21497;-52
2021/03/16 05:50:39;;;;;;;;;;;;;;;3.50;70.58;95358.91;1767040;80;21897;-53
2021/03/16 05:53:25;;;;;;;;;;;;;;;3.51;70.58;95363.14;1762362;80;20210;-52
2021/03/16 05:56:10;;;;;;;;;;;;;;;3.55;70.44;95371.45;1771840;80;20218;-53
2021/03/16 05:58:56;;;;;;;;;;;;;;;3.52;70.43;95374.20;1769145;80;20920;-53
2021/03/16 06:01:42;;;;;;;;;;;;;;;3.50;70.55;95369.17;1767378;81;20217;-53
2021/03/16 06:04:28;;;;;;;;;;;;;;;3.50;70.52;95373.02;1763213;80;21221;-53
2021/03/16 06:07:17;;;;;;;;;;;;;;;3.51;70.50;95373.39;1763380;80;20218;-54
2021/03/16 06:10:12;;;;;;;;;;;;;;;3.52;70.62;95372.48;1767536;80;20273;-52
2021/03/16 06:13:12;;;;;;;;;;;;;;;3.57;70.61;95382.00;1790795;78;20276;-54
2021/03/16 06:15:59;;;;;;;;;;;;;;;3.58;70.51;95377.69;1793363;78;20279;-53
2021/03/16 06:18:49;;;;;;;;;;;;;;;3.63;70.40;95379.03;1786461;78;20283;-53
2021/03/16 06:21:35;;;;;;;;;;;;;;;3.69;70.20;95371.42;1788323;79;20208;-53
2021/03/16 06:24:21;;;;;;;;;;;;;;;3.73;69.95;95373.33;1790237;79;20225;-52
2021/03/16 06:27:08;;;;;;;;;;;;;;;3.65;69.92;95379.78;1801207;78;20527;-53
2021/03/16 06:29:56;;;;;;;;;;;;;;;3.63;69.96;95378.22;1780261;79;20261;-53
2021/03/16 06:32:42;;;;;;;;;;;;;;;3.66;70.12;95384.44;1793301;79;21639;-52
2021/03/16 06:35:28;;;;;;;;;;;;;;;3.69;70.01;95382.50;1792086;79;20237;-52
2021/03/16 06:38:14;;;;;;;;;;;;;;;3.76;69.74;95382.94;1801734;78;20221;-53
2021/03/16 06:41:13;;;;;;;;;;;;;;;3.80;69.80;95384.84;1789602;78;20248;-52
2021/03/16 06:44:01;;;;;;;;;;;;;;;3.86;69.68;95383.19;1793988;79;20497;-52
2021/03/16 06:46:56;;;;;;;;;;;;;;;3.93;69.49;95392.60;1796538;78;21205;-52
2021/03/16 06:49:42;;;;;;;;;;;;;;;3.91;69.28;95390.13;1795869;79;21887;-52
2021/03/16 06:52:28;;;;;;;;;;;;;;;3.90;69.35;95395.36;1786166;78;20259;-52
2021/03/16 06:55:15;;;;;;;;;;;;;;;3.92;69.34;95396.92;1798048;78;20215;-53
2021/03/16 06:58:05;;;;;;;;;;;;;;;3.94;69.27;95391.69;1800677;79;21651;-53
2021/03/16 07:01:08;;;;;;;;;;;;;;;3.94;69.14;95393.79;1788720;79;21472;-53
2021/03/16 07:03:56;;;;;;;;;;;;;;;3.92;69.08;95396.92;1794258;80;20221;-53
2021/03/16 07:06:42;;;;;;;;;;;;;;;3.95;69.17;95404.90;1792350;80;20226;-53
2021/03/16 07:09:28;;;;;;;;;;;;;;;4.03;69.17;95398.34;1770325;79;20216;-53
2021/03/16 07:12:16;;;;;;;;;;;;;;;4.09;68.89;95406.58;1756302;79;20222;-53
2021/03/16 07:15:02;;;;;;;;;;;;;;;4.12;68.83;95407.67;1779305;79;21393;-53
2021/03/16 07:17:48;;;;;;;;;;;;;;;4.13;68.56;95406.73;1790075;79;20292;-53
2021/03/16 07:20:35;;;;;;;;;;;;;;;4.11;68.58;95410.70;1799266;79;20303;-53
2021/03/16 07:23:22;;;;;;;;;;;;;;;4.15;68.66;95405.72;1789091;79;20213;-54
2021/03/16 07:26:07;;;;;;;;;;;;;;;4.20;68.48;95420.37;1806933;79;20213;-53
2021/03/16 07:28:53;;;;;;;;;;;;;;;4.24;68.15;95419.70;1776935;79;21211;-53
2021/03/16 07:31:41;;;;;;;;;;;;;;;4.23;68.19;95422.75;1773998;80;20268;-53
2021/03/16 07:34:27;;;;;;;;;;;;;;;4.23;68.18;95416.33;1745663;82;20238;-52
2021/03/16 07:37:12;;;;;;;;;;;;;;;4.22;68.15;95417.70;1772274;81;20240;-53
2021/03/16 07:40:04;;;;;;;;;;;;;;;4.21;68.18;95413.48;1775395;81;20263;-53
2021/03/16 07:42:51;;;;;;;;;;;;;;;4.18;67.98;95415.80;1775411;80;21405;-52
2021/03/16 07:45:37;;;;;;;;;;;;;;;4.13;68.02;95420.41;1746226;82;20222;-54
2021/03/16 07:48:26;;;;;;;;;;;;;;;4.10;68.12;95410.33;1746335;82;20257;-53
2021/03/16 07:51:16;;;;;;;;;;;;;;;4.04;68.15;95410.72;1768323;81;20536;-54
2021/03/16 07:54:04;;;;;;;;;;;;;;;4.00;68.29;95411.84;1725835;82;20362;-53
2021/03/16 07:57:00;;;;;;;;;;;;;;;4.04;68.40;95414.56;1802030;78;21434;-54
2021/03/16 07:59:50;;;;;;;;;;;;;;;4.15;68.42;95407.48;1791796;79;20220;-53
2021/03/16 08:02:37;;;;;;;;;;;;;;;4.24;68.18;95401.30;1773447;81;20488;-53
2021/03/16 08:05:24;;;;;;;;;;;;;;;4.35;68.01;95397.20;1773250;81;20268;-53
2021/03/16 08:08:15;;;;;;;;;;;;;;;4.43;67.56;95391.92;1800458;79;20213;-53
2021/03/16 08:11:12;;;;;;;;;;;;;;;4.50;67.34;95395.38;1806763;79;21063;-51
2021/03/16 08:13:59;;;;;;;;;;;;;;;4.52;67.13;95400.80;1806798;79;20253;-53
2021/03/16 08:16:45;;;;;;;;;;;;;;;4.51;67.00;95408.12;1805779;79;20233;-53
2021/03/16 08:19:36;;;;;;;;;;;;;;;4.46;67.07;95411.45;1806757;79;20217;-54
2021/03/16 08:22:23;;;;;;;;;;;;;;;4.42;67.21;95416.41;1801644;79;20210;-54
2021/03/16 08:25:12;;;;;;;;;;;;;;;4.42;67.22;95415.98;1796686;80;20229;-54
2021/03/16 08:28:00;;;;;;;;;;;;;;;4.39;67.37;95419.18;1796598;80;20245;-53
2021/03/16 08:30:47;;;;;;;;;;;;;;;4.42;67.28;95417.70;1805024;79;20210;-54
2021/03/16 08:33:33;;;;;;;;;;;;;;;4.41;67.23;95422.50;1805539;79;20217;-53
2021/03/16 08:36:19;;;;;;;;;;;;;;;4.36;67.20;95425.35;1797722;79;21176;-54
2021/03/16 08:39:06;;;;;;;;;;;;;;;4.34;67.17;95429.77;1796720;80;21202;-54
2021/03/16 08:42:01;;;;;;;;;;;;;;;4.33;67.02;95437.11;1796619;80;20218;-53
2021/03/16 08:44:47;;;;;;;;;;;;;;;4.29;67.04;95436.11;1796830;80;20513;-53
2021/03/16 08:47:32;;;;;;;;;;;;;;;4.23;67.28;95437.34;1796724;80;20214;-54
2021/03/16 08:50:25;;;;;;;;;;;;;;;4.23;67.36;95439.91;1778098;80;20230;-53
2021/03/16 08:53:15;;;;;;;;;;;;;;;4.27;67.28;95440.06;1773312;79;21211;-53
2021/03/16 08:56:01;;;;;;;;;;;;;;;4.35;67.35;95428.02;1793616;79;20532;-53
2021/03/16 08:58:51;;;;;;;;;;;;;;;4.42;67.26;95435.23;1774971;79;20492;-53
2021/03/16 09:01:37;;;;;;;;;;;;;;;4.40;67.28;95434.97;1773472;81;20487;-54
2021/03/16 09:04:23;;;;;;;;;;;;;;;4.43;67.13;95434.77;1773468;81;20216;-53
2021/03/16 09:07:10;;;;;;;;;;;;;;;4.41;67.12;95441.28;1774185;80;21196;-53
2021/03/16 09:10:13;;;;;;;;;;;;;;;4.43;67.01;95452.28;1774905;81;20220;-54
2021/03/16 09:13:00;;;;;;;;;;;;;;;4.41;67.06;95452.84;1806654;79;20261;-53
2021/03/16 09:15:48;;;;;;;;;;;;;;;4.43;67.00;95452.28;1805963;79;20242;-54
2021/03/16 09:18:34;;;;;;;;;;;;;;;4.45;66.87;95453.47;1806826;79;20510;-53
2021/03/16 09:21:20;;;;;;;;;;;;;;;4.49;66.93;95452.80;1804626;79;21245;-53
2021/03/16 09:24:06;;;;;;;;;;;;;;;4.55;66.77;95457.08;1775000;81;20257;-53
2021/03/16 09:26:56;;;;;;;;;;;;;;;4.57;66.74;95459.55;1773420;79;20492;-53
2021/03/16 09:29:43;;;;;;;;;;;;;;;4.57;66.59;95460.40;1773368;81;20495;-53
2021/03/16 09:32:30;;;;;;;;;;;;;;;4.55;66.48;95466.07;1762884;79;20221;-53
2021/03/16 09:35:19;;;;;;;;;;;;;;;4.55;66.48;95467.36;1806085;79;21361;-54
2021/03/16 09:38:05;;;;;;;;;;;;;;;4.49;66.37;95469.06;1775107;79;20685;-53
2021/03/16 09:40:44;;;;;;;;;;;;;;;4.45;66.64;95478.34;1774414;81;20212;-53
2021/03/16 09:43:18;;;;;;;;;;;;;;;4.36;66.62;95478.47;1773981;79;20234;-53
2021/03/16 09:45:59;;;;;;;;;;;;;;;4.27;66.94;95481.14;1779761;79;20237;-53
2021/03/16 09:48:27;;;;;;;;;;;;;;;4.23;67.25;95485.66;1806755;79;21211;-54
2021/03/16 09:50:57;;;;;;;;;;;;;;;4.29;67.46;95487.00;1795732;79;20487;-53
2021/03/16 09:53:25;;;;;;;;;;;;;;;4.36;67.55;95493.88;1789499;79;20215;-54
2021/03/16 09:55:59;;;;;;;;;;;;;;;4.39;67.27;95481.66;1791356;79;22112;-54
2021/03/16 09:58:28;;;;;;;;;;;;;;;4.37;67.38;95485.23;1801992;79;20226;-54
2021/03/16 10:00:55;;;;;;;;;;;;;;;4.39;67.25;95488.09;1801784;79;21272;-54
2021/03/16 10:03:23;;;;;;;;;;;;;;;4.38;67.33;95483.86;1787603;79;20482;-54
2021/03/16 10:06:03;;;;;;;;;;;;;;;4.35;67.33;95490.47;1796615;80;20242;-54
2021/03/16 10:08:31;;;;;;;;;;;;;;;4.35;67.45;95483.23;1796437;80;20209;-53
2021/03/16 10:11:00;;;;;;;;;;;;;;;4.38;67.38;95485.61;1781178;79;20261;-53
2021/03/16 10:13:33;;;;;;;;;;;;;;;4.34;67.40;95490.56;1774854;81;21193;-54
2021/03/16 10:16:11;;;;;;;;;;;;;;;4.35;67.46;95487.09;1774720;80;20515;-53
2021/03/16 10:18:40;;;;;;;;;;;;;;;4.46;67.51;95488.52;1774980;81;20314;-54
2021/03/16 10:21:08;;;;;;;;;;;;;;;4.61;67.33;95486.23;1774968;81;20244;-53
2021/03/16 10:23:36;;;;;;;;;;;;;;;4.75;67.09;95487.93;1793579;80;20598;-54
2021/03/16 10:26:06;;;;;;;;;;;;;;;4.84;66.95;95493.39;1776083;79;21287;-55
2021/03/16 10:28:38;;;;;;;;;;;;;;;4.90;66.49;95498.95;1803451;79;20229;-55
2021/03/16 10:31:19;;;;;;;;;;;;;;;4.91;66.44;95503.16;1799658;79;20242;-54
2021/03/16 10:33:53;;;;;;;;;;;;;;;4.96;66.24;95506.25;1804443;79;20209;-54
2021/03/16 10:36:22;;;;;;;;;;;;;;;4.96;66.19;95510.57;1804350;79;20285;-53
2021/03/16 10:38:50;;;;;;;;;;;;;;;5.02;66.02;95505.51;1794144;79;21928;-54
2021/03/16 10:41:20;;;;;;;;;;;;;;;5.07;65.81;95511.17;1803927;79;20288;-54
2021/03/16 10:43:48;;;;;;;;;;;;;;;5.07;65.56;95509.88;1772418;80;20302;-54
2021/03/16 10:46:15;;;;;;;;;;;;;;;5.02;65.83;95516.61;1763442;80;20944;-54
2021/03/16 10:48:45;;;;;;;;;;;;;;;5.08;65.77;95512.35;1771481;81;20226;-54
2021/03/16 10:51:13;;;;;;;;;;;;;;;5.09;65.55;95517.84;1794514;79;21117;-53
2021/03/16 10:53:40;;;;;;;;;;;;;;;5.14;65.61;95515.78;1789895;79;20519;-54
2021/03/16 10:56:08;;;;;;;;;;;;;;;5.20;65.59;95514.57;1805381;79;20237;-55
2021/03/16 10:58:36;;;;;;;;;;;;;;;5.20;65.27;95515.02;1799517;79;20218;-54
2021/03/16 11:01:03;;;;;;;;;;;;;;;5.14;65.48;95513.69;1800651;79;20213;-54
2021/03/16 11:03:33;;;;;;;;;;;;;;;5.15;65.59;95516.16;1788404;79;21356;-54
2021/03/16 11:06:02;;;;;;;;;;;;;;;5.25;65.57;95508.66;1751792;81;20211;-54
2021/03/16 11:08:33;;;;;;;;;;;;;;;5.35;65.11;95514.02;1759898;81;20225;-55
2021/03/16 11:11:01;;;;;;;;;;;;;;;5.33;65.13;95520.55;1804056;79;20221;-58
2021/03/16 11:13:29;;;;;;;;;;;;;;;5.42;65.05;95514.42;1794921;79;20667;-53
2021/03/16 11:15:58;;;;;;;;;;;;;;;5.45;64.87;95511.17;1781769;80;20242;-54
2021/03/16 11:18:27;;;;;;;;;;;;;;;5.52;64.64;95503.39;1779206;80;20519;-54
2021/03/16 11:20:55;;;;;;;;;;;;;;;5.59;64.46;95494.82;1771205;80;20223;-54
2021/03/16 11:23:22;;;;;;;;;;;;;;;5.62;64.25;95496.34;1780131;80;20218;-54
2021/03/16 11:25:50;;;;;;;;;;;;;;;5.62;64.36;95498.91;1781352;80;20278;-54
2021/03/16 11:28:17;;;;;;;;;;;;;;;5.61;64.26;95505.82;1789794;79;23461;-53
2021/03/16 11:30:44;;;;;;;;;;;;;;;5.60;64.34;95505.45;1782297;80;21195;-55
2021/03/16 11:33:12;;;;;;;;;;;;;;;5.64;64.51;95505.62;1787416;80;20210;-53
2021/03/16 11:35:58;;;;;;;;;;;;;;;5.62;64.50;95499.73;1777476;80;20531;-53
2021/03/16 11:38:45;;;;;;;;;;;;;;;5.61;64.50;95503.69;1790445;80;20223;-53
2021/03/16 11:41:30;;;;;;;;;;;;;;;5.66;64.49;95502.94;1781553;80;21410;-53
2021/03/16 11:44:16;;;;;;;;;;;;;;;5.69;64.25;95498.84;1786575;80;20233;-54
2021/03/16 11:47:02;;;;;;;;;;;;;;;5.68;64.13;95498.50;1784839;80;20254;-53
2021/03/16 11:49:48;;;;;;;;;;;;;;;5.65;64.11;95499.52;1791103;80;20218;-53
2021/03/16 11:52:34;;;;;;;;;;;;;;;5.59;64.16;95499.97;1778466;80;20226;-53
2021/03/16 11:55:20;;;;;;;;;;;;;;;5.49;64.41;95498.48;1781822;80;21404;-54
2021/03/16 11:58:06;;;;;;;;;;;;;;;5.41;64.63;95497.33;1744146;81;20224;-52
2021/03/16 12:00:52;;;;;;;;;;;;;;;5.38;65.08;95499.66;1787467;80;21151;-54
2021/03/16 12:03:38;;;;;;;;;;;;;;;5.37;64.86;95495.91;1785035;80;21400;-54
2021/03/16 12:06:24;;;;;;;;;;;;;;;5.27;64.92;95497.80;1784989;80;20242;-54
2021/03/16 12:09:12;;;;;;;;;;;;;;;5.23;65.19;95498.94;1783598;80;20718;-55
2021/03/16 12:11:59;;;;;;;;;;;;;;;5.21;65.29;95499.48;1782647;80;20222;-55
2021/03/16 12:14:46;;;;;;;;;;;;;;;5.15;65.45;95500.73;1781148;80;20222;-53
2021/03/16 12:17:32;;;;;;;;;;;;;;;5.08;65.50;95494.80;1788276;80;20663;-54
2021/03/16 12:20:19;;;;;;;;;;;;;;;5.07;65.59;95497.84;1790240;80;20278;-53
2021/03/16 12:23:05;;;;;;;;;;;;;;;5.05;65.61;95499.70;1760714;81;21293;-54
2021/03/16 12:25:53;;;;;;;;;;;;;;;5.08;65.55;95492.22;1761638;81;20220;-54
2021/03/16 12:28:39;;;;;;;;;;;;;;;5.04;65.54;95507.03;1778228;80;20269;-53
2021/03/16 12:31:25;;;;;;;;;;;;;;;5.04;65.72;95507.51;1789551;80;20214;-54
2021/03/16 12:34:11;;;;;;;;;;;;;;;5.04;65.71;95505.75;1787317;80;20218;-53
2021/03/16 12:36:57;;;;;;;;;;;;;;;4.98;65.96;95506.99;1764480;81;21196;-54
2021/03/16 12:39:42;;;;;;;;;;;;;;;4.97;66.14;95508.38;1766116;81;20212;-54
2021/03/16 12:42:30;;;;;;;;;;;;;;;5.00;66.26;95513.77;1762780;81;20288;-56
2021/03/16 12:45:15;;;;;;;;;;;;;;;5.00;66.23;95515.89;1755897;81;21057;-54
2021/03/16 12:48:02;;;;;;;;;;;;;;;5.01;65.98;95521.38;1761437;81;20244;-53
2021/03/16 12:50:48;;;;;;;;;;;;;;;5.02;65.99;95524.80;1786782;80;21414;-53
2021/03/16 12:53:34;;;;;;;;;;;;;;;5.03;65.85;95523.84;1783233;80;20217;-54
2021/03/16 12:56:20;;;;;;;;;;;;;;;4.98;65.78;95529.28;1786831;80;20219;-54
2021/03/16 12:59:05;;;;;;;;;;;;;;;4.92;65.88;95524.09;1766054;81;20248;-54
2021/03/16 13:01:51;;;;;;;;;;;;;;;4.88;66.04;95523.10;1755848;81;20226;-54
2021/03/16 13:04:38;;;;;;;;;;;;;;;4.88;66.19;95526.48;1754943;81;21406;-53
2021/03/16 13:07:25;;;;;;;;;;;;;;;4.84;66.47;95526.81;1731182;82;20234;-54
2021/03/16 13:10:11;;;;;;;;;;;;;;;4.73;66.64;95521.06;1748957;81;20228;-55
2021/03/16 13:12:57;;;;;;;;;;;;;;;4.67;66.83;95525.30;1769733;80;20214;-53
2021/03/16 13:15:43;;;;;;;;;;;;;;;4.66;66.98;95532.20;1747150;80;20489;-54
2021/03/16 13:18:30;;;;;;;;;;;;;;;4.60;66.91;95537.28;1765744;81;22132;-54
2021/03/16 13:21:17;;;;;;;;;;;;;;;4.50;67.20;95541.33;1764560;81;20284;-55
2021/03/16 13:24:05;;;;;;;;;;;;;;;4.48;67.37;95541.89;1751099;81;20508;-54
2021/03/16 13:26:53;;;;;;;;;;;;;;;4.40;67.59;95547.97;1760904;81;20240;-53
2021/03/16 13:29:39;;;;;;;;;;;;;;;4.36;67.84;95548.63;1744234;81;20234;-54
2021/03/16 13:32:25;;;;;;;;;;;;;;;4.38;67.99;95546.78;1747185;81;21251;-53
2021/03/16 13:35:12;;;;;;;;;;;;;;;4.41;68.06;95549.16;1776678;80;20967;-53
2021/03/16 13:37:58;;;;;;;;;;;;;;;4.46;67.86;95557.02;1765895;80;20220;-54
2021/03/16 13:40:44;;;;;;;;;;;;;;;4.45;67.90;95561.34;1764872;80;20215;-54
2021/03/16 13:43:31;;;;;;;;;;;;;;;4.43;67.68;95555.02;1777275;80;20219;-54
2021/03/16 13:46:20;;;;;;;;;;;;;;;4.38;67.82;95556.23;1765026;80;20233;-54
2021/03/16 13:49:06;;;;;;;;;;;;;;;4.30;67.90;95561.03;1792717;80;20237;-54
2021/03/16 13:51:53;;;;;;;;;;;;;;;4.17;68.21;95559.20;1783847;80;20245;-53
2021/03/16 13:54:38;;;;;;;;;;;;;;;4.09;68.72;95567.83;1770236;79;20983;-52
2021/03/16 13:57:24;;;;;;;;;;;;;;;4.09;68.96;95569.59;1789485;80;20213;-53
2021/03/16 14:00:10;;;;;;;;;;;;;;;4.12;69.06;95564.27;1787994;80;21203;-53
2021/03/16 14:02:56;;;;;;;;;;;;;;;4.19;68.90;95570.23;1781655;79;20221;-54
2021/03/16 14:05:43;;;;;;;;;;;;;;;4.18;68.66;95569.03;1774901;80;20224;-53
2021/03/16 14:08:30;;;;;;;;;;;;;;;4.14;68.78;95574.80;1790229;80;20278;-53
2021/03/16 14:11:16;;;;;;;;;;;;;;;4.16;68.98;95581.12;1772803;80;20214;-53
2021/03/16 14:14:02;;;;;;;;;;;;;;;4.18;68.75;95576.27;1790652;79;21208;-53